To NAV CANADA Home Page Login to a new session Search on AWWS site Disclaimer Vers la page française équivalente Tips FAQ What's new on the site To the Forecasts and Observations / NOTAM section To "File a Flight Plan" website Publications and other links Update of the User's profile FIC Telephone Numbers My Weather Data Folder Route Weather Data Regional Weather Data Local Weather Data To the Forecasts and Observations / NOTAM section
Request Generated 03/19/2019 at 23:21:24 UTC . Weather information available at that time is displayed.

METAR/TAF

WHITECOURT/AB    (show WxCam)

METAR CYZU 192300Z 28004KT 240V320 15SM SKC 17/M07 A3011 RMK SLP217 DENSITY ALT 3200FT=
METAR CYZU 192200Z 30006KT 15SM FEW250 16/M06 A3012 RMK CI1 CI TR SLP220 DENSITY ALT 3100FT=
METAR CYZU 192100Z 31006KT 15SM FEW240 15/M06 A3014 RMK CI1 CI TR SLP227 DENSITY ALT 2900FT=

*** REMARK        : Forecast period has ended; this was the last TAF issued
*** REMARQUE : La période de prévision est échue; ceci était le dernier TAF qui a été émis
TAF CYZU 191838Z 1919/1923 30008KT P6SM FEW210
RMK NXT FCST WILL BE ISSUED AT 201415Z=
Your time UTC time
Weather data provided by Environment Canada and NAV CANADA